Time;durP1;ratioP1;P1;durP2;ratioP2;P2;SDS_P1;SDS_P2;PMS_P1;PMS_P2;Temp;Humidity;BMP_temperature;BMP_pressure;BME280_temperature;BME280_humidity;BME280_pressure;Samples;Min_cycle;Max_cycle;Signal;HPM_P1;HPM_P2
2023/02/08 00:01:51;;;;;;;3.85;2.65;;;2.40;67.90;;;;;;5052370;28;20025;-60
2023/02/08 00:04:17;;;;;;;6.35;3.45;;;2.30;67.80;;;;;;5048336;28;20392;-60
2023/02/08 00:06:42;;;;;;;4.45;2.40;;;2.30;67.80;;;;;;5049576;28;20037;-61
2023/02/08 00:09:08;;;;;;;3.50;2.22;;;2.30;67.90;;;;;;5065987;28;20033;-61
2023/02/08 00:11:34;;;;;;;3.58;2.08;;;2.30;68.00;;;;;;5054255;28;20029;-61
2023/02/08 00:14:00;;;;;;;4.22;2.97;;;2.20;67.90;;;;;;5050912;28;20104;-61
2023/02/08 00:16:25;;;;;;;3.95;2.70;;;2.20;68.00;;;;;;5050149;28;20036;-61
2023/02/08 00:18:51;;;;;;;4.22;3.15;;;2.20;68.00;;;;;;5049549;28;20037;-61
2023/02/08 00:21:17;;;;;;;5.10;2.97;;;2.10;68.00;;;;;;5046060;28;20025;-61
2023/02/08 00:23:43;;;;;;;4.30;2.75;;;2.10;68.10;;;;;;5046070;28;20028;-61
2023/02/08 00:26:09;;;;;;;3.38;2.33;;;2.10;68.10;;;;;;5051785;28;20029;-61
2023/02/08 00:28:35;;;;;;;4.05;2.88;;;2.00;68.10;;;;;;5046965;28;20025;-63
2023/02/08 00:31:01;;;;;;;4.70;2.80;;;2.00;68.20;;;;;;5048037;28;20079;-60
2023/02/08 00:33:27;;;;;;;5.88;2.97;;;2.00;68.20;;;;;;5055724;28;20034;-62
2023/02/08 00:35:59;;;;;;;4.93;3.22;;;2.00;68.30;;;;;;5049215;28;20131;-62
2023/02/08 00:38:25;;;;;;;3.47;3.08;;;2.00;68.30;;;;;;5062651;28;20029;-62
2023/02/08 00:40:50;;;;;;;5.05;3.08;;;2.00;68.30;;;;;;5043657;28;20044;-62
2023/02/08 00:43:16;;;;;;;3.20;2.90;;;2.00;68.40;;;;;;5040122;28;20473;-62
2023/02/08 00:45:42;;;;;;;4.47;2.47;;;1.90;68.40;;;;;;5052468;28;20032;-62
2023/02/08 00:48:08;;;;;;;6.60;2.60;;;1.90;68.40;;;;;;5039004;28;20043;-62
2023/02/08 00:50:33;;;;;;;3.80;2.40;;;1.90;68.40;;;;;;5044292;28;20036;-62
2023/02/08 00:52:59;;;;;;;4.43;3.08;;;1.90;69.10;;;;;;5043456;28;20123;-62
2023/02/08 00:55:25;;;;;;;7.03;2.72;;;1.80;68.50;;;;;;5044433;28;20040;-62
2023/02/08 00:57:50;;;;;;;4.07;2.70;;;1.80;68.60;;;;;;5051088;28;20037;-61
2023/02/08 01:00:16;;;;;;;6.80;3.10;;;1.80;68.60;;;;;;5044697;28;20029;-61
2023/02/08 01:02:42;;;;;;;6.50;3.95;;;1.80;68.70;;;;;;5040577;28;20095;-62
2023/02/08 01:05:08;;;;;;;3.38;2.67;;;1.70;68.70;;;;;;5042637;28;20051;-62
2023/02/08 01:07:36;;;;;;;4.45;2.55;;;1.70;68.80;;;;;;5053984;28;20037;-63
2023/02/08 01:10:02;;;;;;;6.35;3.47;;;1.70;68.80;;;;;;5041715;28;20111;-62
2023/02/08 01:12:28;;;;;;;8.23;3.40;;;1.70;68.90;;;;;;5036237;28;20028;-62
2023/02/08 01:14:54;;;;;;;4.50;2.95;;;1.70;68.90;;;;;;5050546;28;20029;-62
2023/02/08 01:17:19;;;;;;;4.90;2.90;;;1.70;69.00;;;;;;5048013;28;20677;-62
2023/02/08 01:19:45;;;;;;;6.07;2.92;;;1.70;69.00;;;;;;5048375;28;20570;-63
2023/02/08 01:22:10;;;;;;;5.93;3.53;;;1.60;68.90;;;;;;5045431;28;20460;-62
2023/02/08 01:24:36;;;;;;;5.78;2.88;;;1.60;69.00;;;;;;5050358;28;20051;-63
2023/02/08 01:27:02;;;;;;;4.38;2.85;;;1.60;69.10;;;;;;5051846;28;20938;-63
2023/02/08 01:29:27;;;;;;;3.72;2.22;;;1.60;69.00;;;;;;5056237;28;20353;-62
2023/02/08 01:31:53;;;;;;;5.18;2.97;;;1.60;69.00;;;;;;5052105;28;20032;-62
2023/02/08 01:34:19;;;;;;;4.85;2.78;;;1.60;69.00;;;;;;5049159;28;20021;-62
2023/02/08 01:36:44;;;;;;;3.33;2.83;;;1.60;69.00;;;;;;5048749;28;20025;-62
2023/02/08 01:39:11;;;;;;;4.70;2.78;;;1.60;69.00;;;;;;5055835;28;20055;-63
2023/02/08 01:41:43;;;;;;;4.80;3.33;;;1.50;69.10;;;;;;5046540;28;20159;-62
2023/02/08 01:44:11;;;;;;;3.90;2.60;;;1.50;69.10;;;;;;5055179;28;20548;-62
2023/02/08 01:46:42;;;;;;;4.95;3.25;;;1.50;69.20;;;;;;5049708;28;20834;-62
2023/02/08 01:49:08;;;;;;;3.67;2.80;;;1.50;69.20;;;;;;5050178;28;20116;-62
2023/02/08 01:51:39;;;;;;;4.15;2.67;;;1.50;69.20;;;;;;5048562;28;20112;-63
2023/02/08 01:54:07;;;;;;;7.00;3.58;;;1.50;69.30;;;;;;5047526;28;20028;-62
2023/02/08 01:56:37;;;;;;;4.78;3.05;;;1.50;69.30;;;;;;5040876;28;20307;-62
2023/02/08 01:59:09;;;;;;;5.60;3.40;;;1.40;69.40;;;;;;5043868;28;20498;-63
2023/02/08 02:01:37;;;;;;;3.33;2.95;;;1.40;69.40;;;;;;5047318;28;20071;-62
2023/02/08 02:04:04;;;;;;;5.03;3.40;;;1.40;69.40;;;;;;5045937;28;20033;-63
2023/02/08 02:06:39;;;;;;;3.90;2.63;;;1.40;69.50;;;;;;5039330;28;20041;-63
2023/02/08 02:09:12;;;;;;;5.53;3.20;;;1.40;69.50;;;;;;5038504;28;20060;-63
2023/02/08 02:11:38;;;;;;;4.88;2.63;;;1.40;69.50;;;;;;5041592;28;20098;-62
2023/02/08 02:14:05;;;;;;;3.88;2.90;;;1.30;69.50;;;;;;5044138;28;20021;-64
2023/02/08 02:16:30;;;;;;;3.78;2.88;;;1.30;69.50;;;;;;5046577;28;20099;-62
2023/02/08 02:18:56;;;;;;;6.25;3.67;;;1.30;69.50;;;;;;5037353;28;20159;-64
2023/02/08 02:21:35;;;;;;;3.65;2.97;;;1.30;69.60;;;;;;5059783;28;20061;-65
2023/02/08 02:24:41;;;;;;;3.22;2.60;;;1.30;69.60;;;;;;5045677;28;20036;-64
2023/02/08 02:27:30;;;;;;;4.10;3.28;;;1.30;69.50;;;;;;5045950;28;20395;-62
2023/02/08 02:30:33;;;;;;;5.35;3.60;;;1.20;69.60;;;;;;5042320;28;20371;-62
2023/02/08 02:33:10;;;;;;;6.50;3.13;;;1.20;69.60;;;;;;5051266;28;20036;-62
2023/02/08 02:35:44;;;;;;;4.40;2.90;;;1.10;69.80;;;;;;5046766;28;20065;-62
2023/02/08 02:38:12;;;;;;;3.95;3.50;;;1.10;69.80;;;;;;5051833;28;20027;-62
2023/02/08 02:41:01;;;;;;;6.55;3.15;;;1.10;69.80;;;;;;5043921;28;20029;-63
2023/02/08 02:43:42;;;;;;;6.68;3.65;;;1.20;69.80;;;;;;5047492;28;20100;-62
2023/02/08 02:46:26;;;;;;;3.25;2.83;;;1.10;69.80;;;;;;5050176;28;20032;-63
2023/02/08 02:49:08;;;;;;;4.68;2.95;;;1.10;69.80;;;;;;5041295;28;20028;-62
2023/02/08 02:51:56;;;;;;;3.90;2.67;;;1.10;69.90;;;;;;5047773;28;20029;-62
2023/02/08 02:54:42;;;;;;;5.75;3.58;;;1.10;70.00;;;;;;5048544;28;20032;-62
2023/02/08 02:57:13;;;;;;;5.10;3.22;;;1.10;70.00;;;;;;5047725;28;20029;-61
2023/02/08 02:59:39;;;;;;;6.40;3.85;;;1.00;70.00;;;;;;5047251;28;20480;-62
2023/02/08 03:02:05;;;;;;;4.78;3.25;;;1.00;70.00;;;;;;5076487;28;20028;-62
2023/02/08 03:04:33;;;;;;;5.20;3.17;;;1.00;70.10;;;;;;5044881;28;20563;-62
2023/02/08 03:07:16;;;;;;;3.45;2.92;;;1.00;70.20;;;;;;5049592;28;20115;-61
2023/02/08 03:10:20;;;;;;;8.60;4.43;;;1.00;70.10;;;;;;5045901;28;20033;-61
2023/02/08 03:13:10;;;;;;;6.90;3.88;;;1.00;70.00;;;;;;5019302;28;20029;-62
2023/02/08 03:15:55;;;;;;;7.30;3.95;;;1.00;70.20;;;;;;5046480;28;20094;-61
2023/02/08 03:18:49;;;;;;;11.75;3.65;;;1.00;70.70;;;;;;5043214;28;20508;-61
2023/02/08 03:21:40;;;;;;;5.07;3.38;;;0.90;70.30;;;;;;5052298;28;20048;-61
2023/02/08 03:24:27;;;;;;;5.88;3.90;;;0.90;70.40;;;;;;5066312;28;20086;-61
2023/02/08 03:27:02;;;;;;;4.70;3.03;;;0.80;70.40;;;;;;5047541;28;20056;-62
2023/02/08 03:30:00;;;;;;;5.70;3.28;;;0.80;70.50;;;;;;5044041;28;20112;-60
2023/02/08 03:32:37;;;;;;;6.55;3.72;;;0.90;70.40;;;;;;5039639;28;20029;-61
2023/02/08 03:35:19;;;;;;;4.95;3.65;;;0.90;70.40;;;;;;5057464;28;20040;-63
2023/02/08 03:37:45;;;;;;;;;;;0.80;70.40;;;;;;5042218;28;20021;-63
2023/02/08 03:40:24;;;;;;;5.03;3.15;;;0.80;70.40;;;;;;5051047;28;19962;-61
2023/02/08 03:42:53;;;;;;;7.15;4.15;;;0.80;70.60;;;;;;5052795;28;20125;-61
2023/02/08 03:45:27;;;;;;;2.75;2.55;;;0.70;70.60;;;;;;5052360;28;20563;-62
2023/02/08 03:47:55;;;;;;;7.18;3.90;;;0.70;70.60;;;;;;5059891;28;20027;-62
2023/02/08 03:50:22;;;;;;;4.70;3.50;;;0.70;70.70;;;;;;5053804;28;20024;-61
2023/02/08 03:52:51;;;;;;;13.15;4.32;;;0.70;70.70;;;;;;5053096;28;20021;-62
2023/02/08 03:55:24;;;;;;;5.07;3.22;;;0.70;70.70;;;;;;5054005;28;20060;-62
2023/02/08 03:58:02;;;;;;;4.93;3.15;;;0.70;70.70;;;;;;5046423;28;20029;-62
2023/02/08 04:00:33;;;;;;;8.02;3.60;;;0.80;70.60;;;;;;5048100;28;20028;-60
2023/02/08 04:03:05;;;;;;;5.72;3.22;;;0.70;70.60;;;;;;5060009;28;20104;-64
2023/02/08 04:05:31;;;;;;;5.93;4.07;;;0.70;70.50;;;;;;5042974;28;20543;-63
2023/02/08 04:07:57;;;;;;;5.68;3.38;;;0.70;70.50;;;;;;5053106;28;20031;-63
2023/02/08 04:10:22;;;;;;;6.22;3.60;;;0.70;70.50;;;;;;5053019;28;20029;-63
2023/02/08 04:12:49;;;;;;;7.55;3.67;;;0.70;70.50;;;;;;5049880;28;20373;-63
2023/02/08 04:15:15;;;;;;;4.57;3.80;;;0.70;70.60;;;;;;5049767;28;20022;-63
2023/02/08 04:17:41;;;;;;;6.97;3.70;;;0.70;70.60;;;;;;5047343;28;20025;-62
2023/02/08 04:20:07;;;;;;;4.93;3.63;;;0.70;70.60;;;;;;5029478;28;20396;-63
2023/02/08 04:22:33;;;;;;;5.28;3.85;;;0.70;70.70;;;;;;5044800;28;20099;-61
2023/02/08 04:24:59;;;;;;;9.48;3.83;;;0.60;70.70;;;;;;5049496;28;20028;-62
2023/02/08 04:27:24;;;;;;;5.90;3.38;;;0.60;70.70;;;;;;5057495;28;20041;-62
2023/02/08 04:29:50;;;;;;;3.92;3.17;;;0.60;70.70;;;;;;5051415;28;20033;-61
2023/02/08 04:32:16;;;;;;;6.97;3.88;;;0.60;70.60;;;;;;5049771;28;20037;-62
2023/02/08 04:34:41;;;;;;;4.63;3.10;;;0.60;70.70;;;;;;5041533;28;20032;-62
2023/02/08 04:37:08;;;;;;;6.47;3.53;;;0.60;70.70;;;;;;5049162;28;20033;-64
2023/02/08 04:39:33;;;;;;;4.15;3.15;;;0.60;70.80;;;;;;5047223;28;20049;-61
2023/02/08 04:41:59;;;;;;;8.40;3.60;;;0.60;71.00;;;;;;5055036;28;20117;-62
2023/02/08 04:44:26;;;;;;;5.05;3.22;;;0.60;71.00;;;;;;5053920;28;20024;-62
2023/02/08 04:46:51;;;;;;;7.32;3.90;;;0.50;70.90;;;;;;5050854;28;20042;-61
2023/02/08 04:49:17;;;;;;;4.50;2.95;;;0.60;71.00;;;;;;5044386;28;20087;-61
2023/02/08 04:51:43;;;;;;;6.00;3.58;;;0.50;70.90;;;;;;5050106;28;20112;-62
2023/02/08 04:54:08;;;;;;;5.65;2.85;;;0.50;70.90;;;;;;5048636;28;20029;-62
2023/02/08 04:56:35;;;;;;;5.70;3.15;;;0.50;70.90;;;;;;5044952;28;20055;-61
2023/02/08 04:59:01;;;;;;;5.55;3.72;;;0.50;70.90;;;;;;5048239;28;20035;-61
2023/02/08 05:01:27;;;;;;;6.80;3.15;;;0.50;70.90;;;;;;5050206;28;20079;-62
2023/02/08 05:03:52;;;;;;;9.55;3.42;;;0.50;70.90;;;;;;5048836;28;20029;-63
2023/02/08 05:06:18;;;;;;;6.47;3.88;;;0.50;70.90;;;;;;5047829;28;20581;-60
2023/02/08 05:08:44;;;;;;;5.18;3.42;;;0.40;70.90;;;;;;5046645;28;20018;-61
2023/02/08 05:11:09;;;;;;;5.75;3.03;;;0.40;70.90;;;;;;5049909;28;20120;-62
2023/02/08 05:13:35;;;;;;;5.05;3.30;;;0.40;71.00;;;;;;5044450;28;20075;-61
2023/02/08 05:16:01;;;;;;;5.05;2.97;;;0.40;71.00;;;;;;5050830;28;20112;-62
2023/02/08 05:18:26;;;;;;;4.28;3.30;;;0.40;71.00;;;;;;5048231;28;20091;-62
2023/02/08 05:20:57;;;;;;;5.65;2.88;;;0.40;71.00;;;;;;5039042;28;20037;-62
2023/02/08 05:23:23;;;;;;;4.57;3.75;;;0.40;71.00;;;;;;5043828;28;20044;-63
2023/02/08 05:25:49;;;;;;;6.75;3.47;;;0.30;71.10;;;;;;5044129;28;20021;-63
2023/02/08 05:28:17;;;;;;;7.20;3.08;;;0.30;71.10;;;;;;5044251;28;20044;-62
2023/02/08 05:30:44;;;;;;;5.22;2.97;;;0.30;71.00;;;;;;5014601;28;20033;-63
2023/02/08 05:33:09;;;;;;;3.05;2.45;;;0.30;71.10;;;;;;5046599;28;20040;-63
2023/02/08 05:35:35;;;;;;;7.28;4.18;;;0.30;71.20;;;;;;5048351;28;20033;-62
2023/02/08 05:38:01;;;;;;;7.93;3.25;;;0.30;71.20;;;;;;5046621;28;20037;-60
2023/02/08 05:40:26;;;;;;;3.10;2.60;;;0.20;71.20;;;;;;5046544;28;20029;-61
2023/02/08 05:42:52;;;;;;;7.63;2.97;;;0.20;71.20;;;;;;5048179;28;20516;-62
2023/02/08 05:45:18;;;;;;;7.30;3.60;;;0.20;71.20;;;;;;5047270;28;20053;-60
2023/02/08 05:47:46;;;;;;;5.18;3.17;;;0.20;71.20;;;;;;5047135;28;20045;-61
2023/02/08 05:50:12;;;;;;;6.05;2.80;;;0.20;71.30;;;;;;5044754;28;20456;-61
2023/02/08 05:52:38;;;;;;;8.35;4.13;;;0.20;71.30;;;;;;5041139;28;20389;-63
2023/02/08 05:55:04;;;;;;;7.60;3.88;;;0.20;71.30;;;;;;5050652;28;20021;-63
2023/02/08 05:57:30;;;;;;;6.05;3.78;;;0.20;71.30;;;;;;5066147;28;20067;-64
2023/02/08 05:59:56;;;;;;;5.35;3.03;;;0.20;71.30;;;;;;5074413;28;20040;-64
2023/02/08 06:02:21;;;;;;;3.83;3.15;;;0.20;71.40;;;;;;5070515;28;20086;-63
2023/02/08 06:04:47;;;;;;;5.28;3.40;;;0.20;71.40;;;;;;5042449;28;20526;-63
2023/02/08 06:07:13;;;;;;;9.70;3.13;;;0.20;71.40;;;;;;5040473;28;20043;-63
2023/02/08 06:09:39;;;;;;;4.95;3.47;;;0.20;71.40;;;;;;5044390;28;20472;-63
2023/02/08 06:12:06;;;;;;;5.05;3.50;;;0.20;71.50;;;;;;5070701;28;20124;-63
2023/02/08 06:14:31;;;;;;;5.47;3.67;;;0.20;71.60;;;;;;5047391;28;20163;-63
2023/02/08 06:16:57;;;;;;;9.63;3.90;;;0.20;71.70;;;;;;5045260;28;20120;-62
2023/02/08 06:19:23;;;;;;;9.57;3.22;;;0.20;71.70;;;;;;5051648;28;20524;-63
2023/02/08 06:21:48;;;;;;;5.25;3.38;;;0.20;71.70;;;;;;5047249;28;20023;-63
2023/02/08 06:24:15;;;;;;;7.95;4.22;;;0.20;71.80;;;;;;5045449;28;20029;-63
2023/02/08 06:26:42;;;;;;;5.82;3.95;;;0.20;71.90;;;;;;5043749;28;20116;-63
2023/02/08 06:29:08;;;;;;;8.55;4.15;;;0.20;71.90;;;;;;5042148;28;20033;-63
2023/02/08 06:31:34;;;;;;;4.50;3.25;;;0.20;71.90;;;;;;5042923;28;20074;-61
2023/02/08 06:34:00;;;;;;;5.63;3.30;;;0.20;72.00;;;;;;5047735;28;20029;-62
2023/02/08 06:36:25;;;;;;;6.25;3.65;;;0.20;71.90;;;;;;5043073;28;20029;-61
2023/02/08 06:38:51;;;;;;;7.40;3.90;;;0.10;71.90;;;;;;5042390;28;20059;-61
2023/02/08 06:41:17;;;;;;;10.63;4.88;;;0.10;72.00;;;;;;5040652;28;20028;-61
2023/02/08 06:43:42;;;;;;;5.78;3.33;;;0.10;72.00;;;;;;5043563;28;20021;-61
2023/02/08 06:46:08;;;;;;;8.10;3.97;;;0.10;71.90;;;;;;5044589;28;20040;-62
2023/02/08 06:48:34;;;;;;;6.10;4.03;;;0.10;72.00;;;;;;5048329;28;20033;-65
2023/02/08 06:51:00;;;;;;;9.32;4.65;;;0.10;72.10;;;;;;5045961;28;20040;-63
2023/02/08 06:53:26;;;;;;;6.65;3.35;;;0.10;72.10;;;;;;5050912;28;20457;-62
2023/02/08 06:55:52;;;;;;;4.25;3.38;;;0.10;72.10;;;;;;5053569;28;20116;-62
2023/02/08 06:58:17;;;;;;;5.30;3.63;;;0.00;72.10;;;;;;5042085;28;20033;-63
2023/02/08 07:00:47;;;;;;;6.63;3.88;;;0.10;72.20;;;;;;5060129;28;20033;-62
2023/02/08 07:03:16;;;;;;;7.28;4.20;;;0.10;72.20;;;;;;5047724;28;20031;-62
2023/02/08 07:05:42;;;;;;;8.25;3.83;;;0.10;72.20;;;;;;5046829;28;20044;-61
2023/02/08 07:08:08;;;;;;;6.80;3.90;;;0.10;72.20;;;;;;5044696;28;20031;-61
2023/02/08 07:10:34;;;;;;;6.20;4.32;;;0.00;72.20;;;;;;5056869;28;20026;-60
2023/02/08 07:13:01;;;;;;;6.85;4.57;;;0.00;72.30;;;;;;5046332;28;20385;-65
2023/02/08 07:15:29;;;;;;;8.00;4.53;;;0.10;72.40;;;;;;5049792;28;20107;-60
2023/02/08 07:17:55;;;;;;;9.82;3.95;;;0.00;72.40;;;;;;5042359;28;20249;-60
2023/02/08 07:20:20;;;;;;;7.47;3.80;;;0.10;72.50;;;;;;5047002;28;20050;-64
2023/02/08 07:22:46;;;;;;;9.20;4.60;;;0.10;72.40;;;;;;5082192;28;20025;-64
2023/02/08 07:25:12;;;;;;;8.43;4.22;;;0.10;72.50;;;;;;5051080;28;20031;-65
2023/02/08 07:27:37;;;;;;;7.13;4.25;;;0.10;72.50;;;;;;5054151;28;20041;-64
2023/02/08 07:30:03;;;;;;;7.78;4.07;;;0.10;72.40;;;;;;5083291;28;20476;-64
2023/02/08 07:32:29;;;;;;;6.47;3.90;;;0.10;72.50;;;;;;5052701;28;20496;-65
2023/02/08 07:34:55;;;;;;;6.15;4.15;;;0.10;72.40;;;;;;5053923;28;20025;-60
2023/02/08 07:37:21;;;;;;;9.93;4.88;;;0.10;72.50;;;;;;5055740;28;20119;-60
2023/02/08 07:39:46;;;;;;;7.78;4.43;;;0.10;72.50;;;;;;5050717;28;20052;-64
2023/02/08 07:42:12;;;;;;;7.18;4.60;;;0.20;72.60;;;;;;5057354;28;20074;-58
2023/02/08 07:44:38;;;;;;;5.57;4.25;;;0.20;72.60;;;;;;5063450;28;20028;-60
2023/02/08 07:47:05;;;;;;;9.63;4.68;;;0.20;72.60;;;;;;5051480;28;20542;-60
2023/02/08 07:49:33;;;;;;;7.40;4.97;;;0.20;72.70;;;;;;5052001;28;20029;-61
2023/02/08 07:51:59;;;;;;;8.20;4.25;;;0.30;72.80;;;;;;5056357;28;20100;-60
2023/02/08 07:54:25;;;;;;;6.40;4.13;;;0.30;72.80;;;;;;5057021;28;20045;-60
2023/02/08 07:56:51;;;;;;;8.48;4.35;;;0.40;72.80;;;;;;5055068;28;20033;-61
2023/02/08 07:59:17;;;;;;;6.88;4.07;;;0.40;72.80;;;;;;5049810;28;20130;-61
2023/02/08 08:01:43;;;;;;;7.28;4.88;;;0.50;72.80;;;;;;5055460;28;20591;-61
2023/02/08 08:04:08;;;;;;;8.73;5.05;;;0.50;72.70;;;;;;5048261;28;20029;-59
2023/02/08 08:06:34;;;;;;;5.05;3.53;;;0.60;72.70;;;;;;5043090;28;20060;-61
2023/02/08 08:09:00;;;;;;;4.85;3.15;;;0.60;72.60;;;;;;5046321;28;20547;-62
2023/02/08 08:11:26;;;;;;;8.27;4.93;;;0.60;72.60;;;;;;5049026;28;20471;-63
2023/02/08 08:13:51;;;;;;;11.30;3.85;;;0.70;72.70;;;;;;5046110;28;20025;-61
2023/02/08 08:16:18;;;;;;;9.50;3.95;;;0.70;72.70;;;;;;5046140;28;20494;-61
2023/02/08 08:18:44;;;;;;;6.97;4.05;;;0.80;72.70;;;;;;5049426;28;20060;-60
2023/02/08 08:21:10;;;;;;;7.38;4.57;;;0.80;72.50;;;;;;5047889;28;20093;-60
2023/02/08 08:23:36;;;;;;;5.78;3.50;;;0.90;72.50;;;;;;5043033;28;20035;-59
2023/02/08 08:26:13;;;;;;;19.73;4.10;;;0.90;73.00;;;;;;5050055;28;20025;-60
2023/02/08 08:28:39;;;;;;;4.22;2.92;;;1.00;72.40;;;;;;5049268;28;20079;-60
2023/02/08 08:31:14;;;;;;;6.82;3.60;;;1.10;72.30;;;;;;5047202;28;20036;-61
2023/02/08 08:33:40;;;;;;;6.47;3.78;;;1.20;72.30;;;;;;5040242;28;20104;-59
2023/02/08 08:36:07;;;;;;;5.25;3.60;;;1.30;72.20;;;;;;5048877;28;20384;-60
2023/02/08 08:38:32;;;;;;;5.13;3.53;;;1.30;72.10;;;;;;5050984;28;20037;-60
2023/02/08 08:40:58;;;;;;;7.03;3.63;;;1.40;72.00;;;;;;5050402;28;20067;-60
2023/02/08 08:43:24;;;;;;;4.72;3.03;;;1.50;71.80;;;;;;5045454;28;20033;-60
2023/02/08 08:45:49;;;;;;;8.02;4.00;;;1.60;71.70;;;;;;5049695;28;20064;-60
2023/02/08 08:48:15;;;;;;;9.65;4.35;;;1.70;71.60;;;;;;5048170;28;20029;-60
2023/02/08 08:50:41;;;;;;;4.65;3.50;;;1.80;71.40;;;;;;5050881;28;20053;-60
2023/02/08 08:53:08;;;;;;;6.60;3.53;;;1.90;71.30;;;;;;5049495;28;20075;-60
2023/02/08 08:55:33;;;;;;;8.68;4.43;;;2.00;70.90;;;;;;5039972;28;20756;-60
2023/02/08 08:57:59;;;;;;;6.50;3.90;;;2.10;70.60;;;;;;5041143;28;20116;-62
2023/02/08 09:00:26;;;;;;;5.97;2.97;;;2.20;70.60;;;;;;5046472;28;20048;-60
2023/02/08 09:02:52;;;;;;;5.90;2.97;;;2.30;70.40;;;;;;5039552;28;20029;-61
2023/02/08 09:05:18;;;;;;;6.47;4.03;;;2.50;70.30;;;;;;5044747;28;20043;-61
2023/02/08 09:07:43;;;;;;;7.68;3.58;;;2.60;70.00;;;;;;5058995;28;20098;-61
2023/02/08 09:10:09;;;;;;;3.70;3.10;;;2.70;69.70;;;;;;5050185;28;20048;-61
2023/02/08 09:12:35;;;;;;;5.20;3.78;;;2.90;69.50;;;;;;5070863;28;20022;-61
2023/02/08 09:15:01;;;;;;;6.38;3.65;;;3.00;69.20;;;;;;5042585;28;20032;-61
2023/02/08 09:17:26;;;;;;;5.55;3.47;;;3.10;68.90;;;;;;5043950;28;20037;-60
2023/02/08 09:19:52;;;;;;;8.57;4.25;;;3.20;68.70;;;;;;5006463;28;1147161;-61
2023/02/08 09:22:19;;;;;;;6.63;3.55;;;3.30;68.60;;;;;;5047005;28;20103;-61
2023/02/08 09:24:44;;;;;;;4.38;3.92;;;3.50;68.40;;;;;;5048221;28;20028;-60
2023/02/08 09:27:10;;;;;;;7.15;4.20;;;3.70;68.10;;;;;;5040393;28;20551;-60
2023/02/08 09:29:36;;;;;;;7.40;3.97;;;3.80;67.80;;;;;;5049049;28;20029;-60
2023/02/08 09:32:02;;;;;;;5.68;3.10;;;3.90;67.60;;;;;;5075920;28;20443;-59
2023/02/08 09:34:27;;;;;;;5.22;4.10;;;4.00;67.30;;;;;;5044238;28;20044;-61
2023/02/08 09:36:53;;;;;;;8.50;3.80;;;4.20;67.10;;;;;;5042365;28;20063;-60
2023/02/08 09:39:22;;;;;;;7.88;4.40;;;4.30;66.70;;;;;;5043385;28;20079;-62
2023/02/08 09:42:21;;;;;;;8.52;3.90;;;4.30;66.40;;;;;;5042535;28;20064;-61
2023/02/08 09:45:08;;;;;;;6.65;3.42;;;4.50;66.30;;;;;;5043173;28;20025;-61
2023/02/08 09:47:36;;;;;;;7.28;4.15;;;4.60;66.00;;;;;;5040244;28;20433;-61
2023/02/08 09:50:17;;;;;;;5.53;4.07;;;4.80;65.80;;;;;;5040474;28;20013;-61
2023/02/08 09:52:57;;;;;;;5.38;3.55;;;4.90;65.60;;;;;;5041470;28;20484;-61
2023/02/08 09:55:28;;;;;;;6.38;3.90;;;5.00;65.20;;;;;;5040712;28;20440;-62
2023/02/08 09:57:58;;;;;;;5.90;3.15;;;5.20;64.90;;;;;;5034722;28;20588;-60
2023/02/08 10:00:39;;;;;;;4.43;3.50;;;5.30;64.80;;;;;;5038170;28;20104;-61
2023/02/08 10:03:17;;;;;;;5.43;2.85;;;5.50;64.50;;;;;;5043175;28;20127;-61
2023/02/08 10:05:43;;;;;;;5.70;3.65;;;5.50;64.10;;;;;;5044403;28;20107;-61
2023/02/08 10:08:11;;;;;;;6.05;4.15;;;5.70;63.80;;;;;;5045676;28;20120;-61
2023/02/08 10:10:45;;;;;;;5.43;2.83;;;5.80;63.60;;;;;;5034331;28;20031;-61
2023/02/08 10:13:43;;;;;;;3.80;3.35;;;5.90;63.30;;;;;;5043059;28;20025;-60
2023/02/08 10:16:43;;;;;;;5.68;3.03;;;6.00;63.20;;;;;;5043003;28;20059;-60
2023/02/08 10:19:27;;;;;;;3.20;2.65;;;6.20;62.90;;;;;;5044605;28;20056;-60
2023/02/08 10:22:02;;;;;;;5.82;3.72;;;6.30;62.80;;;;;;5044140;28;20032;-61
2023/02/08 10:24:48;;;;;;;6.15;4.00;;;6.40;62.00;;;;;;5044288;28;20044;-62
2023/02/08 10:27:14;;;;;;;6.00;3.15;;;6.40;61.80;;;;;;5042306;28;20120;-60
2023/02/08 10:29:58;;;;;;;4.13;3.58;;;6.40;61.30;;;;;;5057837;28;20056;-59
2023/02/08 10:33:13;;;;;;;6.88;3.15;;;6.50;60.70;;;;;;5039803;28;20025;-59
2023/02/08 10:35:48;;;;;;;6.00;3.38;;;6.60;60.60;;;;;;4979875;28;20030;-59
2023/02/08 10:38:19;;;;;;;7.95;3.90;;;6.70;60.40;;;;;;4981415;28;20035;-61
2023/02/08 10:40:58;;;;;;;5.50;3.72;;;6.80;60.00;;;;;;5023047;28;20507;-62
2023/02/08 10:43:36;;;;;;;7.88;4.07;;;6.90;59.70;;;;;;5043288;28;20035;-60
2023/02/08 10:46:34;;;;;;;7.78;3.60;;;7.10;59.80;;;;;;5042038;28;20085;-59
2023/02/08 10:49:14;;;;;;;4.35;2.90;;;7.40;59.20;;;;;;5030804;28;20033;-59
2023/02/08 10:51:40;;;;;;;6.50;3.92;;;7.60;58.80;;;;;;5038215;28;20029;-59
2023/02/08 10:54:09;;;;;;;3.88;3.35;;;7.80;57.70;;;;;;5042160;28;20025;-60
2023/02/08 10:56:51;;;;;;;4.65;3.25;;;7.90;57.50;;;;;;5041844;28;20492;-60
2023/02/08 10:59:30;;;;;;;6.07;2.30;;;8.10;56.50;;;;;;5042648;28;20491;-61
2023/02/08 11:01:57;;;;;;;4.72;2.75;;;8.20;55.80;;;;;;5040440;28;20052;-61
2023/02/08 11:04:24;;;;;;;3.45;2.67;;;8.30;55.20;;;;;;5038299;28;20047;-60
2023/02/08 11:06:52;;;;;;;4.65;2.75;;;8.40;54.70;;;;;;5035673;28;20033;-59
2023/02/08 11:09:31;;;;;;;5.88;3.55;;;8.50;54.40;;;;;;5042523;28;20029;-60
2023/02/08 11:11:59;;;;;;;5.63;2.92;;;8.60;54.10;;;;;;5038464;28;20534;-59
2023/02/08 11:14:30;;;;;;;7.03;3.55;;;8.80;53.60;;;;;;5046152;28;20568;-60
2023/02/08 11:16:57;;;;;;;6.03;2.90;;;9.00;52.90;;;;;;5041987;28;20420;-59
2023/02/08 11:19:44;;;;;;;6.15;3.45;;;9.20;52.30;;;;;;5033134;28;20515;-59
2023/02/08 11:22:22;;;;;;;5.28;3.38;;;9.40;51.30;;;;;;5039712;28;20029;-60
2023/02/08 11:25:01;;;;;;;3.08;2.75;;;9.70;50.70;;;;;;5043701;28;20029;-59
2023/02/08 11:27:27;;;;;;;4.85;2.42;;;9.90;50.20;;;;;;5040444;28;20408;-60
2023/02/08 11:30:14;;;;;;;4.47;2.97;;;10.10;50.00;;;;;;5047029;28;20021;-59
2023/02/08 11:32:43;;;;;;;4.72;2.50;;;10.20;48.30;;;;;;5048988;28;20117;-60
2023/02/08 11:35:22;;;;;;;2.90;2.20;;;10.40;47.40;;;;;;5044604;28;20025;-59
2023/02/08 11:37:50;;;;;;;6.32;2.50;;;10.50;47.50;;;;;;5045457;28;20079;-59
2023/02/08 11:40:34;;;;;;;2.58;1.70;;;10.60;46.40;;;;;;5068779;28;20487;-59
2023/02/08 11:43:00;;;;;;;5.72;2.30;;;10.60;46.10;;;;;;5047772;28;20564;-59
2023/02/08 11:45:32;;;;;;;5.82;2.40;;;10.70;45.20;;;;;;5051065;28;20029;-60
2023/02/08 11:48:00;;;;;;;6.97;3.05;;;10.90;45.50;;;;;;5038993;28;20036;-60
2023/02/08 11:50:32;;;;;;;6.85;2.63;;;11.10;44.30;;;;;;5042959;28;20025;-60
2023/02/08 11:53:05;;;;;;;4.20;1.98;;;11.40;44.40;;;;;;5041741;28;20362;-60
2023/02/08 11:55:33;;;;;;;3.53;2.58;;;11.80;42.90;;;;;;5046575;28;20151;-60
2023/02/08 11:58:01;;;;;;;3.47;2.10;;;12.50;41.90;;;;;;5042226;28;20547;-60
2023/02/08 12:00:37;;;;;;;7.57;2.33;;;13.70;41.10;;;;;;5047993;28;20040;-60
2023/02/08 12:03:05;;;;;;;3.35;2.05;;;15.30;39.00;;;;;;5038031;28;20033;-59
2023/02/08 12:05:43;;;;;;;4.68;2.47;;;17.40;36.20;;;;;;5039454;28;20089;-59
2023/02/08 12:08:15;;;;;;;5.18;2.67;;;19.10;33.40;;;;;;5044998;28;20044;-59
2023/02/08 12:10:54;;;;;;;6.25;2.65;;;20.90;31.10;;;;;;5044209;28;20029;-59
2023/02/08 12:13:29;;;;;;;3.50;2.47;;;22.40;29.40;;;;;;5045665;28;20037;-60
2023/02/08 12:16:36;;;;;;;3.90;2.75;;;23.40;28.50;;;;;;5054793;28;20017;-60
2023/02/08 12:19:33;;;;;;;5.80;2.45;;;24.30;27.30;;;;;;5036756;28;20087;-60
2023/02/08 12:22:24;;;;;;;4.85;2.05;;;25.40;26.60;;;;;;5043465;28;20020;-61
2023/02/08 12:24:57;;;;;;;5.05;2.30;;;25.90;26.40;;;;;;5046841;28;20097;-60
2023/02/08 12:27:35;;;;;;;4.10;2.58;;;26.40;26.00;;;;;;5040294;28;20716;-60
2023/02/08 12:30:32;;;;;;;3.25;2.22;;;26.80;25.40;;;;;;5044992;28;20428;-60
2023/02/08 12:33:24;;;;;;;3.20;1.55;;;27.30;25.20;;;;;;5043430;28;20016;-60
2023/02/08 12:36:22;;;;;;;4.45;2.17;;;27.50;24.90;;;;;;5052458;28;20029;-60
2023/02/08 12:42:09;;;;;;;5.53;1.95;;;27.60;24.20;;;;;;5042663;28;20031;-59
2023/02/08 12:45:08;;;;;;;3.90;2.40;;;27.90;24.20;;;;;;5047414;28;20485;-59
2023/02/08 12:47:55;;;;;;;3.17;2.33;;;27.90;23.70;;;;;;5013720;28;20193;-60
2023/02/08 12:51:13;;;;;;;1.35;1.25;;;28.10;23.70;;;;;;5047086;28;20021;-60
2023/02/08 12:53:51;;;;;;;3.28;2.10;;;28.00;23.30;;;;;;5003671;28;20088;-60
2023/02/08 12:56:26;;;;;;;3.45;2.17;;;28.10;23.20;;;;;;5047469;28;20514;-60
2023/02/08 12:58:59;;;;;;;3.20;1.83;;;28.30;22.70;;;;;;5042112;28;20037;-60
2023/02/08 13:01:34;;;;;;;5.00;2.00;;;28.40;22.90;;;;;;5038946;28;20584;-60
2023/02/08 13:04:04;;;;;;;2.30;1.65;;;28.50;22.90;;;;;;5042548;28;20025;-61
2023/02/08 13:06:59;;;;;;;2.53;1.95;;;28.40;22.70;;;;;;5053434;28;20028;-61
2023/02/08 13:09:51;;;;;;;3.20;1.90;;;28.30;22.20;;;;;;5039922;28;20029;-61
2023/02/08 13:12:25;;;;;;;2.00;1.80;;;28.00;22.00;;;;;;5068989;28;20052;-61
2023/02/08 13:15:14;;;;;;;2.97;1.98;;;27.80;22.40;;;;;;5041267;28;20026;-61
2023/02/08 13:17:42;;;;;;;6.60;2.30;;;27.70;22.50;;;;;;5038676;28;20036;-61
2023/02/08 13:20:48;;;;;;;3.00;2.05;;;27.20;22.80;;;;;;5042011;28;20061;-61